Time;durP1;ratioP1;P1;durP2;ratioP2;P2;SDS_P1;SDS_P2;PMS_P1;PMS_P2;Temp;Humidity;BMP_temperature;BMP_pressure;BME280_temperature;BME280_humidity;BME280_pressure;Samples;Min_cycle;Max_cycle;Signal;HPM_P1;HPM_P2
2022/08/17 00:00:49;;;;;;;30.58;25.73;;;;;;;20.47;100.00;100797.69;5047615;28;20025;-69
2022/08/17 00:03:14;;;;;;;32.50;27.30;;;;;;;20.44;100.00;100805.00;5044519;28;20038;-69
2022/08/17 00:05:50;;;;;;;32.15;25.90;;;;;;;20.52;100.00;100802.91;5047793;28;20174;-69
2022/08/17 00:08:18;;;;;;;32.67;28.63;;;;;;;20.49;100.00;100800.31;5041192;28;20025;-69
2022/08/17 00:10:45;;;;;;;31.63;26.98;;;;;;;20.45;100.00;100790.66;5047490;28;20345;-69
2022/08/17 00:13:18;;;;;;;32.38;27.42;;;;;;;20.47;100.00;100791.47;5040325;28;20496;-70
2022/08/17 00:15:43;;;;;;;33.60;29.88;;;;;;;20.49;100.00;100782.44;5040608;28;20033;-69
2022/08/17 00:18:09;;;;;;;32.92;28.67;;;;;;;20.50;100.00;100780.59;5047616;28;20460;-69
2022/08/17 00:20:34;;;;;;;33.95;29.25;;;;;;;20.55;100.00;100776.81;5044806;28;20036;-69
2022/08/17 00:23:13;;;;;;;34.58;30.77;;;;;;;20.61;100.00;100770.34;5046035;28;20101;-68
2022/08/17 00:25:40;;;;;;;37.28;31.70;;;;;;;20.55;100.00;100771.44;5044063;28;20028;-70
2022/08/17 00:28:06;;;;;;;34.00;30.30;;;;;;;20.45;100.00;100764.69;5046743;28;20040;-70
2022/08/17 00:30:31;;;;;;;34.47;30.65;;;;;;;20.44;100.00;100760.22;5045568;28;20368;-70
2022/08/17 00:32:57;;;;;;;33.83;30.08;;;;;;;20.50;100.00;100767.19;5045602;28;20021;-68
2022/08/17 00:35:23;;;;;;;37.85;33.03;;;;;;;20.47;100.00;100762.81;5046450;28;20113;-68
2022/08/17 00:37:50;;;;;;;40.92;36.60;;;;;;;20.45;100.00;100762.00;5043386;28;20443;-68
2022/08/17 00:40:17;;;;;;;38.05;34.05;;;;;;;20.43;100.00;100761.19;5047130;28;20025;-69
2022/08/17 00:42:43;;;;;;;39.08;34.88;;;;;;;20.48;100.00;100752.97;5043779;28;20022;-62
2022/08/17 00:45:16;;;;;;;39.33;35.13;;;;;;;20.50;100.00;100754.66;5046823;28;20021;-66
2022/08/17 00:47:42;;;;;;;40.38;35.97;;;;;;;20.50;100.00;100753.75;5039968;28;20036;-65
2022/08/17 00:50:10;;;;;;;42.15;36.78;;;;;;;20.53;100.00;100748.28;5046635;28;20049;-65
2022/08/17 00:52:44;;;;;;;40.40;36.13;;;;;;;20.58;100.00;100753.50;5042997;28;20033;-64
2022/08/17 00:55:10;;;;;;;41.75;37.42;;;;;;;20.63;100.00;100756.84;5046846;28;20533;-66
2022/08/17 00:57:41;;;;;;;40.88;36.47;;;;;;;20.54;100.00;100758.09;5044140;28;20384;-61
2022/08/17 01:00:12;;;;;;;42.00;37.53;;;;;;;20.60;100.00;100755.16;5046123;28;20061;-66
2022/08/17 01:02:41;;;;;;;43.15;38.60;;;;;;;20.56;100.00;100758.88;5043792;28;20029;-67
2022/08/17 01:05:12;;;;;;;40.90;36.65;;;;;;;20.53;100.00;100757.22;5045637;28;20107;-67
2022/08/17 01:07:38;;;;;;;43.53;39.03;;;;;;;20.49;100.00;100757.38;5043424;28;20075;-67
2022/08/17 01:10:08;;;;;;;43.13;38.53;;;;;;;20.55;100.00;100755.34;5045893;28;20256;-66
2022/08/17 01:12:34;;;;;;;42.17;37.70;;;;;;;20.55;100.00;100755.34;5044248;28;20495;-67
2022/08/17 01:14:59;;;;;;;43.35;38.75;;;;;;;20.54;100.00;100748.22;5043707;28;20056;-67
2022/08/17 01:17:27;;;;;;;43.00;38.53;;;;;;;20.58;100.00;100750.81;5045228;28;20049;-67
2022/08/17 01:19:53;;;;;;;43.45;38.85;;;;;;;20.52;100.00;100750.09;5043931;28;20439;-67
2022/08/17 01:22:23;;;;;;;46.03;41.30;;;;;;;20.48;100.00;100745.75;5046103;28;20025;-67
2022/08/17 01:24:56;;;;;;;43.95;39.40;;;;;;;20.39;100.00;100743.44;5043097;28;20021;-67
2022/08/17 01:27:22;;;;;;;44.65;40.03;;;;;;;20.34;100.00;100734.69;5045709;28;20087;-66
2022/08/17 01:29:52;;;;;;;43.70;39.10;;;;;;;20.37;100.00;100737.25;5043362;28;20022;-66
2022/08/17 01:32:18;;;;;;;42.33;37.92;;;;;;;20.35;100.00;100731.06;5046046;28;20025;-67
2022/08/17 01:34:44;;;;;;;41.72;37.42;;;;;;;20.31;100.00;100732.13;5042830;28;20098;-68
2022/08/17 01:37:11;;;;;;;42.38;38.03;;;;;;;20.23;100.00;100726.16;5045994;28;20442;-67
2022/08/17 01:39:52;;;;;;;43.08;38.50;;;;;;;20.28;100.00;100740.28;5043365;28;20057;-67
2022/08/17 01:42:36;;;;;;;43.55;38.95;;;;;;;20.20;100.00;100730.72;5039681;28;20029;-67
2022/08/17 01:45:10;;;;;;;43.47;38.88;;;;;;;20.20;100.00;100725.34;5043749;28;20029;-69
2022/08/17 01:47:36;;;;;;;43.72;39.20;;;;;;;20.14;100.00;100722.91;5045223;28;20101;-67
2022/08/17 01:50:15;;;;;;;42.35;38.00;;;;;;;20.12;100.00;100721.19;5044037;28;20055;-67
2022/08/17 01:52:44;;;;;;;42.60;38.15;;;;;;;20.06;100.00;100718.75;5044387;28;20049;-67
2022/08/17 01:55:11;;;;;;;43.40;38.90;;;;;;;20.05;100.00;100720.53;5042570;28;20021;-67
2022/08/17 01:57:37;;;;;;;43.95;39.25;;;;;;;20.04;100.00;100716.13;5045138;28;20037;-66
2022/08/17 02:00:07;;;;;;;43.47;39.03;;;;;;;19.98;100.00;100711.88;5043522;28;20111;-67
2022/08/17 02:02:32;;;;;;;44.28;39.85;;;;;;;20.02;100.00;100713.50;5044378;28;20033;-67
2022/08/17 02:04:58;;;;;;;43.95;39.28;;;;;;;20.07;100.00;100712.47;5044306;28;20490;-67
2022/08/17 02:07:23;;;;;;;43.80;39.30;;;;;;;20.13;100.00;100715.78;5043077;28;20083;-67
2022/08/17 02:09:49;;;;;;;44.08;39.47;;;;;;;20.01;100.00;100705.53;5045368;28;20021;-67
2022/08/17 02:12:15;;;;;;;44.35;39.58;;;;;;;19.98;100.00;100708.28;5042158;28;20488;-68
2022/08/17 02:14:41;;;;;;;43.95;39.45;;;;;;;19.98;100.00;100710.97;5027394;28;20434;-67
2022/08/17 02:17:06;;;;;;;44.30;39.60;;;;;;;19.94;100.00;100709.34;5040727;28;20128;-67
2022/08/17 02:19:32;;;;;;;43.45;39.05;;;;;;;19.85;100.00;100706.06;5044096;28;20342;-67
2022/08/17 02:21:57;;;;;;;45.55;40.65;;;;;;;19.79;100.00;100706.31;5043603;28;20025;-67
2022/08/17 02:24:27;;;;;;;45.70;41.05;;;;;;;19.66;100.00;100710.31;5042502;28;20457;-67
2022/08/17 02:26:53;;;;;;;45.75;41.15;;;;;;;19.53;100.00;100709.88;5044720;28;20025;-66
2022/08/17 02:29:18;;;;;;;46.00;41.40;;;;;;;19.44;100.00;100705.72;5042289;28;20463;-67
2022/08/17 02:31:44;;;;;;;45.67;41.03;;;;;;;19.42;100.00;100712.91;5045251;28;20464;-66
2022/08/17 02:34:10;;;;;;;46.88;42.08;;;;;;;19.35;100.00;100703.34;5042175;28;20033;-67
2022/08/17 02:36:36;;;;;;;46.72;41.92;;;;;;;19.35;100.00;100706.00;5044126;28;20030;-67
2022/08/17 02:39:08;;;;;;;46.70;42.00;;;;;;;19.39;100.00;100704.13;5043163;28;20021;-67
2022/08/17 02:41:33;;;;;;;46.63;41.77;;;;;;;19.38;100.00;100700.53;5043839;28;20040;-67
2022/08/17 02:43:59;;;;;;;45.35;40.75;;;;;;;19.36;100.00;100698.88;5043326;28;20267;-67
2022/08/17 02:46:25;;;;;;;46.45;41.72;;;;;;;19.28;100.00;100700.00;5042236;28;20065;-67
2022/08/17 02:48:50;;;;;;;46.47;41.60;;;;;;;19.20;100.00;100690.47;5044673;28;20100;-67
2022/08/17 02:51:15;;;;;;;46.45;41.75;;;;;;;19.15;100.00;100691.50;5041464;28;20028;-67
2022/08/17 02:53:41;;;;;;;44.53;39.72;;;;;;;19.05;100.00;100692.75;5044456;28;20021;-67
2022/08/17 02:56:07;;;;;;;46.53;41.83;;;;;;;19.00;100.00;100683.97;5042221;28;20420;-67
2022/08/17 02:58:32;;;;;;;45.85;41.13;;;;;;;18.90;100.00;100688.78;5043040;28;20026;-67
2022/08/17 03:00:57;;;;;;;46.88;42.08;;;;;;;18.84;100.00;100685.38;5043216;28;20028;-61
2022/08/17 03:03:23;;;;;;;46.05;41.35;;;;;;;18.85;100.00;100679.97;5041995;28;20516;-66
2022/08/17 03:05:50;;;;;;;45.53;40.47;;;;;;;18.80;100.00;100682.81;5044482;28;20108;-65
2022/08/17 03:08:16;;;;;;;47.17;42.17;;;;;;;18.85;100.00;100687.13;5041170;28;20429;-67
2022/08/17 03:10:42;;;;;;;46.03;41.33;;;;;;;18.91;100.00;100674.44;5044175;28;20120;-66
2022/08/17 03:13:07;;;;;;;44.17;39.42;;;;;;;18.97;100.00;100679.63;5041589;28;20109;-66
2022/08/17 03:15:33;;;;;;;44.67;39.97;;;;;;;19.06;100.00;100677.53;5043128;28;20112;-67
2022/08/17 03:18:01;;;;;;;44.65;39.92;;;;;;;19.08;100.00;100673.88;5042949;28;20029;-66
2022/08/17 03:20:29;;;;;;;43.75;39.25;;;;;;;19.12;100.00;100670.19;5042135;28;20036;-67
2022/08/17 03:22:56;;;;;;;44.13;39.53;;;;;;;19.13;100.00;100685.34;5043646;28;20029;-67
2022/08/17 03:25:28;;;;;;;44.05;39.25;;;;;;;19.14;100.00;100680.84;5041344;28;20021;-67
2022/08/17 03:27:54;;;;;;;43.35;38.75;;;;;;;19.13;100.00;100679.97;5043199;28;20035;-67
2022/08/17 03:30:21;;;;;;;43.17;38.55;;;;;;;19.15;100.00;100677.25;5040877;28;20128;-67
2022/08/17 03:32:48;;;;;;;41.83;37.53;;;;;;;19.15;100.00;100683.47;5044400;28;20021;-67
2022/08/17 03:35:20;;;;;;;42.78;38.22;;;;;;;19.13;100.00;100684.44;5036766;28;20034;-67
2022/08/17 03:37:46;;;;;;;;;;;;;;;19.20;100.00;100685.13;5037536;28;20021;-67
2022/08/17 03:40:12;;;;;;;41.65;37.35;;;;;;;19.15;100.00;100683.47;5043990;28;19920;-67
2022/08/17 03:42:39;;;;;;;40.70;36.30;;;;;;;19.15;100.00;100688.81;5041333;28;20116;-66
2022/08/17 03:45:09;;;;;;;41.38;36.97;;;;;;;19.11;100.00;100689.84;5042621;28;20025;-66
2022/08/17 03:58:50;;;;;;;44.38;39.67;;;;;;;19.31;100.00;100697.22;4999590;28;20133;-65
2022/08/17 04:01:16;;;;;;;44.08;39.47;;;;;;;19.32;100.00;100700.75;5002282;28;20109;-66
2022/08/17 04:03:42;;;;;;;42.95;38.45;;;;;;;19.31;100.00;100704.41;4998872;28;20113;-66
2022/08/17 04:06:07;;;;;;;43.17;38.30;;;;;;;19.33;100.00;100702.53;5001186;28;20133;-66
2022/08/17 04:08:34;;;;;;;43.95;39.35;;;;;;;19.25;100.00;100710.84;5000308;28;20030;-66
2022/08/17 04:11:00;;;;;;;45.22;40.53;;;;;;;19.17;100.00;100716.44;5000293;28;20519;-66
2022/08/17 04:13:26;;;;;;;44.17;39.42;;;;;;;19.12;100.00;100737.16;5001127;28;20124;-66
2022/08/17 04:15:51;;;;;;;44.13;39.63;;;;;;;19.22;100.00;100747.56;4999302;28;20117;-66
2022/08/17 04:18:18;;;;;;;44.38;39.78;;;;;;;19.27;100.00;100756.34;5002164;28;20484;-66
2022/08/17 04:20:44;;;;;;;46.22;41.22;;;;;;;19.26;100.00;100749.22;4998490;28;20038;-61
2022/08/17 04:23:13;;;;;;;45.65;40.72;;;;;;;19.32;100.00;100736.50;5001620;28;20496;-67
2022/08/17 04:25:43;;;;;;;45.45;40.63;;;;;;;19.37;100.00;100739.00;4999290;28;20038;-65
2022/08/17 04:28:08;;;;;;;46.03;41.22;;;;;;;19.41;100.00;100739.78;5001212;28;20033;-66
2022/08/17 04:30:35;;;;;;;47.17;42.17;;;;;;;19.41;100.00;100748.72;5000841;28;20026;-66
2022/08/17 04:33:07;;;;;;;45.38;40.58;;;;;;;19.41;100.00;100751.38;5039908;28;20045;-66
2022/08/17 04:35:49;;;;;;;45.22;40.42;;;;;;;19.39;100.00;100761.25;5042102;28;20039;-66
2022/08/17 04:38:19;;;;;;;45.58;40.65;;;;;;;19.41;100.00;100759.44;5036066;28;20025;-66
2022/08/17 04:43:30;;;;;;;45.90;41.10;;;;;;;19.29;100.00;100792.84;5043468;28;20044;-67
2022/08/17 04:45:59;;;;;;;45.67;40.90;;;;;;;19.29;100.00;100791.97;5045801;28;20045;-67
2022/08/17 04:48:27;;;;;;;44.70;40.08;;;;;;;19.36;100.00;100781.94;5044320;28;20029;-67
2022/08/17 04:50:52;;;;;;;44.65;39.85;;;;;;;19.30;100.00;100796.41;5046677;28;20033;-66
2022/08/17 04:53:18;;;;;;;44.78;39.97;;;;;;;19.35;100.00;100786.41;5043571;28;20079;-67
2022/08/17 04:55:44;;;;;;;44.17;39.55;;;;;;;19.41;100.00;100802.31;5046908;28;20032;-66
2022/08/17 04:58:09;;;;;;;45.20;40.30;;;;;;;19.45;100.00;100781.63;5044203;28;20057;-64
2022/08/17 05:00:37;;;;;;;43.60;38.95;;;;;;;19.49;100.00;100776.09;5045170;28;20365;-61
2022/08/17 05:03:03;;;;;;;44.08;39.45;;;;;;;19.50;100.00;100779.69;5045182;28;20036;-61
2022/08/17 05:05:32;;;;;;;43.15;38.55;;;;;;;19.54;100.00;100769.72;5044823;28;20052;-60
2022/08/17 05:08:00;;;;;;;42.05;37.65;;;;;;;19.58;100.00;100771.38;5044189;28;20021;-61
2022/08/17 05:10:29;;;;;;;41.17;36.78;;;;;;;19.53;100.00;100779.56;5044482;28;20375;-62
2022/08/17 05:13:25;;;;;;;43.58;38.95;;;;;;;19.57;100.00;100766.94;5045991;28;20108;-61
2022/08/17 05:15:57;;;;;;;42.17;37.60;;;;;;;19.61;100.00;100765.91;5039402;28;20477;-61
2022/08/17 05:18:23;;;;;;;42.72;38.03;;;;;;;19.63;100.00;100764.03;5046307;28;20150;-60
2022/08/17 05:20:49;;;;;;;42.03;36.67;;;;;;;19.71;100.00;100774.50;5042886;28;20036;-61
2022/08/17 05:23:16;;;;;;;40.55;36.25;;;;;;;19.81;100.00;100775.97;5046514;28;20028;-60
2022/08/17 05:25:45;;;;;;;41.25;36.85;;;;;;;19.85;100.00;100770.44;5043211;28;20049;-68
2022/08/17 05:28:10;;;;;;;42.28;37.75;;;;;;;19.84;100.00;100782.09;5045918;28;20040;-69
2022/08/17 05:30:38;;;;;;;41.95;37.40;;;;;;;19.92;100.00;100771.09;5044230;28;20025;-68
2022/08/17 05:33:11;;;;;;;42.25;36.97;;;;;;;19.96;100.00;100767.34;5045030;28;20436;-68
2022/08/17 05:35:41;;;;;;;41.25;36.65;;;;;;;20.04;100.00;100761.75;5044233;28;20017;-69
2022/08/17 05:38:07;;;;;;;39.58;35.38;;;;;;;20.16;100.00;100768.47;5045193;28;20396;-67
2022/08/17 05:40:32;;;;;;;39.95;35.45;;;;;;;20.28;100.00;100767.13;5044090;28;20033;-68
2022/08/17 05:43:25;;;;;;;40.13;35.08;;;;;;;20.38;100.00;100781.94;5043938;28;20172;-69
2022/08/17 05:46:03;;;;;;;39.00;33.92;;;;;;;20.49;100.00;100773.47;5039452;28;20516;-67
2022/08/17 05:48:36;;;;;;;37.40;33.15;;;;;;;20.55;100.00;100766.06;5044495;28;20542;-68
2022/08/17 05:51:31;;;;;;;37.67;33.53;;;;;;;20.60;100.00;100767.72;5032702;28;20033;-63
2022/08/17 05:54:21;;;;;;;37.20;33.20;;;;;;;20.59;100.00;100769.53;4993611;28;20042;-64
2022/08/17 05:56:55;;;;;;;36.55;32.03;;;;;;;20.67;100.00;100756.69;4993207;28;20500;-60
2022/08/17 05:59:47;;;;;;;37.03;31.42;;;;;;;20.76;100.00;100758.16;4990506;28;20500;-58
2022/08/17 06:02:40;;;;;;;36.47;30.77;;;;;;;20.85;100.00;100764.97;4992586;28;20046;-68
2022/08/17 06:05:27;;;;;;;36.08;28.70;;;;;;;20.92;100.00;100760.22;4994643;28;20409;-69
2022/08/17 06:08:06;;;;;;;33.15;27.75;;;;;;;21.01;100.00;100768.81;4990884;28;20034;-68
2022/08/17 06:10:45;;;;;;;32.80;27.42;;;;;;;20.99;100.00;100777.84;4992056;28;20030;-67
2022/08/17 06:13:43;;;;;;;31.98;26.27;;;;;;;21.04;100.00;100763.31;4988390;28;20034;-68
2022/08/17 06:16:12;;;;;;;33.00;26.38;;;;;;;21.07;100.00;100773.03;4993481;28;20540;-71
2022/08/17 06:19:12;;;;;;;31.30;24.80;;;;;;;21.16;100.00;100777.16;4990308;28;20129;-70
2022/08/17 06:21:42;;;;;;;30.77;24.30;;;;;;;21.13;100.00;100783.56;4991374;28;20037;-75
2022/08/17 06:24:14;;;;;;;29.88;24.13;;;;;;;21.09;100.00;100786.44;4987022;28;20061;-70
2022/08/17 06:26:44;;;;;;;29.90;24.13;;;;;;;21.08;100.00;100793.59;4990098;28;20086;-69
2022/08/17 06:29:34;;;;;;;29.27;23.77;;;;;;;21.12;100.00;100811.34;4987565;28;20197;-70
2022/08/17 06:32:01;;;;;;;29.15;23.30;;;;;;;21.18;100.00;100797.66;5026893;28;20377;-71
2022/08/17 06:34:27;;;;;;;31.10;24.20;;;;;;;21.15;100.00;100816.59;5036156;28;20029;-74
2022/08/17 06:36:52;;;;;;;30.88;23.67;;;;;;;21.14;100.00;100806.78;5033885;28;20047;-69
2022/08/17 06:39:39;;;;;;;29.20;22.73;;;;;;;21.13;100.00;100814.91;5029454;28;20060;-75
2022/08/17 06:42:28;;;;;;;29.75;22.50;;;;;;;21.09;100.00;100807.94;5031686;28;20300;-72
2022/08/17 06:45:13;;;;;;;29.17;21.67;;;;;;;21.00;100.00;100809.13;5030076;28;20076;-78
2022/08/17 06:47:51;;;;;;;29.85;21.88;;;;;;;20.94;100.00;100814.75;5031546;28;20132;-73
2022/08/17 06:50:34;;;;;;;28.23;21.33;;;;;;;20.94;100.00;100812.09;5032153;28;20389;-72
2022/08/17 06:53:18;;;;;;;28.52;21.27;;;;;;;20.93;100.00;100816.59;5029528;28;20558;-70
2022/08/17 06:55:50;;;;;;;27.73;20.98;;;;;;;20.88;100.00;100827.53;5032538;28;20072;-67
2022/08/17 06:58:21;;;;;;;28.75;21.35;;;;;;;20.89;100.00;100825.69;5032183;28;20424;-71
2022/08/17 07:00:49;;;;;;;28.02;20.75;;;;;;;20.96;100.00;100831.72;5030485;28;20183;-76
2022/08/17 07:03:45;;;;;;;28.25;20.92;;;;;;;21.06;100.00;100830.41;5029433;28;20040;-78
2022/08/17 07:06:12;;;;;;;28.35;21.15;;;;;;;21.13;100.00;100826.56;5030580;28;20116;-65
2022/08/17 07:08:40;;;;;;;27.20;20.60;;;;;;;21.21;100.00;100839.69;5029177;28;20380;-70
2022/08/17 07:11:12;;;;;;;28.63;21.30;;;;;;;21.29;100.00;100832.19;5031502;28;20090;-67
2022/08/17 07:13:47;;;;;;;26.57;20.70;;;;;;;21.35;100.00;100831.06;5033049;28;20029;-75
2022/08/17 07:16:31;;;;;;;28.27;20.67;;;;;;;21.46;100.00;100828.78;5031680;28;20032;-66
2022/08/17 07:18:57;;;;;;;27.48;20.92;;;;;;;21.57;100.00;100834.63;5029789;28;20021;-69
2022/08/17 07:21:53;;;;;;;27.98;20.75;;;;;;;21.61;100.00;100838.09;5031317;28;20061;-63
2022/08/17 07:24:42;;;;;;;30.00;20.90;;;;;;;21.62;100.00;100841.63;5030367;28;20175;-64
2022/08/17 07:27:22;;;;;;;29.50;21.13;;;;;;;21.62;100.00;100830.88;5030889;28;20025;-60
2022/08/17 07:29:53;;;;;;;29.25;20.98;;;;;;;21.54;100.00;100832.06;5032889;28;20511;-65
2022/08/17 07:32:30;;;;;;;28.55;21.55;;;;;;;21.52;100.00;100835.75;5030590;28;20060;-67
2022/08/17 07:35:14;;;;;;;28.15;21.10;;;;;;;21.51;100.00;100839.38;5034085;28;20084;-72
2022/08/17 07:37:51;;;;;;;27.48;20.48;;;;;;;21.41;100.00;100841.56;5029795;28;20030;-64
2022/08/17 07:40:26;;;;;;;27.88;20.80;;;;;;;21.42;100.00;100849.56;5031518;28;20108;-60
2022/08/17 07:43:01;;;;;;;28.40;20.88;;;;;;;21.42;100.00;100860.31;5029999;28;20487;-68
2022/08/17 07:48:24;;;;;;;29.30;21.52;;;;;;;21.63;100.00;100857.72;5027561;28;20595;-61
2022/08/17 07:50:51;;;;;;;28.17;20.92;;;;;;;21.82;100.00;100873.09;5030206;28;20044;-60
2022/08/17 07:53:21;;;;;;;27.05;20.27;;;;;;;22.00;100.00;100860.66;5031586;28;20040;-60
2022/08/17 07:55:47;;;;;;;27.95;20.90;;;;;;;22.11;100.00;100866.44;5032130;28;20380;-59
2022/08/17 07:58:19;;;;;;;27.30;20.27;;;;;;;22.21;100.00;100859.72;5030376;28;20044;-60
2022/08/17 08:00:44;;;;;;;27.80;20.40;;;;;;;22.38;100.00;100863.50;5032330;28;20037;-60
2022/08/17 08:03:12;;;;;;;28.73;20.73;;;;;;;22.39;100.00;100862.56;5029247;28;20392;-60
2022/08/17 08:05:48;;;;;;;29.45;20.65;;;;;;;22.50;100.00;100871.06;5032026;28;20022;-68
2022/08/17 08:08:21;;;;;;;30.45;20.88;;;;;;;22.61;100.00;100867.84;5031353;28;20099;-68
2022/08/17 08:10:58;;;;;;;27.88;20.10;;;;;;;22.69;100.00;100868.41;5031694;28;20021;-68
2022/08/17 08:13:27;;;;;;;28.20;20.45;;;;;;;22.73;100.00;100869.09;5030646;28;20033;-68
2022/08/17 08:16:19;;;;;;;27.13;19.98;;;;;;;22.73;100.00;100866.41;5041025;28;20028;-68
2022/08/17 08:18:49;;;;;;;28.65;20.42;;;;;;;22.70;100.00;100872.84;5036676;28;20089;-60
2022/08/17 08:21:50;;;;;;;26.70;19.88;;;;;;;22.86;100.00;100869.41;5034179;28;20033;-58
2022/08/17 08:24:54;;;;;;;27.15;20.10;;;;;;;22.99;100.00;100870.59;5036325;28;20472;-59
2022/08/17 08:27:43;;;;;;;27.40;20.25;;;;;;;23.02;100.00;100865.03;5012009;28;20655;-59
2022/08/17 08:30:13;;;;;;;27.50;20.63;;;;;;;22.89;100.00;100855.78;5011773;28;20129;-60
2022/08/17 08:32:56;;;;;;;28.13;20.52;;;;;;;23.07;100.00;100854.06;5010901;28;20600;-62
2022/08/17 08:35:29;;;;;;;27.48;20.40;;;;;;;23.13;100.00;100848.41;5009877;28;20041;-59
2022/08/17 08:38:13;;;;;;;28.73;21.50;;;;;;;23.09;100.00;100842.25;5011427;28;20030;-61
2022/08/17 08:41:15;;;;;;;29.58;21.80;;;;;;;23.06;100.00;100844.22;5008122;28;20037;-64
2022/08/17 08:44:10;;;;;;;28.48;21.92;;;;;;;23.01;100.00;100843.56;5009066;28;20103;-61
2022/08/17 08:46:50;;;;;;;27.90;20.58;;;;;;;23.10;100.00;100871.00;4946648;29;20557;-66
2022/08/17 08:49:35;;;;;;;30.15;21.92;;;;;;;23.28;100.00;100882.69;4966965;28;20043;-66
2022/08/17 08:52:07;;;;;;;29.50;22.23;;;;;;;23.40;100.00;100888.47;4963097;28;20046;-62
2022/08/17 08:54:49;;;;;;;28.67;21.67;;;;;;;23.42;100.00;100891.97;4965701;28;20548;-66
2022/08/17 08:57:21;;;;;;;28.80;21.23;;;;;;;23.46;100.00;100899.84;4965601;28;20046;-65
2022/08/17 09:00:11;;;;;;;28.23;22.35;;;;;;;23.79;100.00;100890.13;4966702;28;20561;-70
2022/08/17 09:03:04;;;;;;;28.27;21.42;;;;;;;24.06;100.00;100887.00;4992982;28;20061;-69
2022/08/17 09:05:41;;;;;;;;;;;;;;;24.22;100.00;100882.56;4996914;28;20077;-70
2022/08/17 09:08:18;;;;;;;28.98;22.35;;;;;;;23.94;100.00;100889.41;4997536;28;19922;-68
2022/08/17 09:10:58;;;;;;;28.33;21.63;;;;;;;23.87;100.00;100879.88;5000512;28;20049;-69
2022/08/17 09:13:29;;;;;;;30.23;22.75;;;;;;;23.55;100.00;100876.94;5003297;28;20034;-70
2022/08/17 09:16:03;;;;;;;29.13;23.10;;;;;;;23.39;100.00;100882.19;5002879;28;20080;-69
2022/08/17 09:18:37;;;;;;;29.83;23.55;;;;;;;23.12;100.00;100889.78;5004103;28;20026;-70
2022/08/17 09:21:10;;;;;;;29.38;23.35;;;;;;;22.95;100.00;100891.44;5001359;28;20038;-68
2022/08/17 09:23:58;;;;;;;28.70;22.88;;;;;;;22.97;100.00;100894.06;5016523;28;20033;-69
2022/08/17 09:27:02;;;;;;;28.33;21.60;;;;;;;23.12;100.00;100900.56;5042946;28;20029;-69
2022/08/17 09:29:34;;;;;;;29.65;23.10;;;;;;;23.06;100.00;100906.22;5022193;28;20060;-68
2022/08/17 09:32:03;;;;;;;29.13;22.90;;;;;;;23.21;100.00;100902.84;5021247;28;20033;-70
2022/08/17 09:34:38;;;;;;;29.52;22.92;;;;;;;23.31;100.00;100898.75;5023150;28;20033;-69
2022/08/17 09:37:29;;;;;;;29.17;21.52;;;;;;;23.42;100.00;100917.09;5020883;28;20118;-68
2022/08/17 09:40:08;;;;;;;29.13;21.95;;;;;;;23.24;100.00;100923.38;5022469;28;20041;-70
2022/08/17 09:42:55;;;;;;;28.48;23.00;;;;;;;23.10;100.00;100940.19;5021018;28;20122;-69
2022/08/17 09:45:30;;;;;;;30.15;22.98;;;;;;;22.79;100.00;100952.38;5021968;28;20177;-69
2022/08/17 09:47:59;;;;;;;30.27;24.10;;;;;;;;;;5021947;28;20544;-69
2022/08/17 09:50:35;;;;;;;31.77;25.75;;;;;;;22.08;100.00;100972.41;5022186;28;20130;-70
2022/08/17 09:53:01;;;;;;;32.90;24.98;;;;;;;21.73;100.00;100990.03;5020926;28;20042;-69
2022/08/17 09:56:00;;;;;;;31.35;25.45;;;;;;;21.33;100.00;100986.16;5022463;28;20144;-70
2022/08/17 09:58:31;;;;;;;34.78;28.25;;;;;;;20.60;100.00;100982.53;5007035;28;20053;-70
2022/08/17 10:01:05;;;;;;;34.43;29.20;;;;;;;20.01;100.00;100965.75;5016182;28;20037;-67
2022/08/17 10:03:42;;;;;;;36.70;30.70;;;;;;;19.73;100.00;100961.25;5012611;28;20113;-67
2022/08/17 10:06:18;;;;;;;36.63;32.60;;;;;;;19.74;100.00;100960.28;5031077;28;20045;-69
2022/08/17 10:09:05;;;;;;;36.63;32.00;;;;;;;19.62;100.00;100966.06;5031701;28;20053;-69
2022/08/17 10:14:42;;;;;;;40.90;33.80;;;;;;;19.63;100.00;100960.66;5028812;28;20491;-69
2022/08/17 10:17:10;;;;;;;38.55;32.80;;;;;;;19.61;100.00;100959.81;5034766;28;20048;-69
2022/08/17 10:19:50;;;;;;;41.95;35.05;;;;;;;19.63;100.00;100959.75;5031852;28;20025;-70
2022/08/17 10:28:06;;;;;;;41.58;36.60;;;;;;;19.91;100.00;100966.97;5044674;28;20167;-68
2022/08/17 10:30:35;;;;;;;43.13;36.30;;;;;;;19.97;100.00;100962.25;5038465;28;20109;-68
2022/08/17 10:33:05;;;;;;;42.40;36.20;;;;;;;19.95;100.00;100965.91;5035901;28;20029;-68
2022/08/17 10:35:42;;;;;;;41.22;36.13;;;;;;;20.00;100.00;100967.53;5038567;28;20041;-68
2022/08/17 10:38:35;;;;;;;40.92;35.85;;;;;;;20.10;100.00;100949.31;5038693;28;20033;-68
2022/08/17 10:41:16;;;;;;;41.63;36.20;;;;;;;20.20;100.00;100944.53;5042771;28;20029;-68
2022/08/17 10:43:47;;;;;;;43.50;36.00;;;;;;;20.30;100.00;100942.38;5041521;28;20033;-69
2022/08/17 10:46:26;;;;;;;38.95;34.70;;;;;;;20.20;100.00;100931.13;5038106;28;20088;-68
2022/08/17 10:49:22;;;;;;;40.17;34.45;;;;;;;20.16;100.00;100927.66;5043508;28;20021;-68
2022/08/17 10:51:53;;;;;;;39.03;34.28;;;;;;;20.17;100.00;100926.72;5039511;28;20036;-62
2022/08/17 10:54:24;;;;;;;37.90;32.10;;;;;;;20.15;100.00;100916.97;5044003;28;20043;-62
2022/08/17 10:56:54;;;;;;;36.85;31.88;;;;;;;20.07;100.00;100911.00;5042560;28;20071;-64
2022/08/17 10:59:35;;;;;;;38.10;32.70;;;;;;;19.96;100.00;100904.16;5043685;28;20047;-61
2022/08/17 11:02:24;;;;;;;38.03;33.88;;;;;;;20.01;100.00;100907.59;5043541;28;20068;-61
2022/08/17 11:05:07;;;;;;;38.70;33.28;;;;;;;19.96;100.00;100906.84;5040204;28;20037;-62
2022/08/17 11:07:42;;;;;;;39.33;33.83;;;;;;;20.00;100.00;100905.81;5041777;28;20048;-64
2022/08/17 11:10:51;;;;;;;36.25;31.98;;;;;;;19.92;100.00;100915.06;5037005;28;20033;-64
2022/08/17 11:13:30;;;;;;;37.28;32.30;;;;;;;19.84;100.00;100908.16;4980690;28;20402;-61
2022/08/17 11:16:16;;;;;;;37.30;33.03;;;;;;;19.68;100.00;100914.91;4981771;28;20128;-60
2022/08/17 11:19:08;;;;;;;36.90;32.50;;;;;;;19.69;100.00;100919.34;4976508;28;20077;-61
2022/08/17 11:21:59;;;;;;;36.70;32.70;;;;;;;19.70;100.00;100926.44;4982289;28;20030;-62
2022/08/17 11:24:38;;;;;;;41.03;35.50;;;;;;;19.90;100.00;100931.22;4979634;28;20133;-62
2022/08/17 11:27:22;;;;;;;39.70;34.45;;;;;;;20.00;100.00;100935.34;4980310;28;20406;-65
2022/08/17 11:29:52;;;;;;;39.25;33.40;;;;;;;20.11;100.00;100939.47;4977868;28;20378;-65
2022/08/17 11:32:27;;;;;;;38.70;33.17;;;;;;;20.30;100.00;100947.75;4982559;28;20029;-67
2022/08/17 11:35:29;;;;;;;39.25;33.85;;;;;;;20.36;100.00;100958.31;4981004;28;20031;-67
2022/08/17 11:38:32;;;;;;;36.13;31.93;;;;;;;20.40;100.00;100967.13;4923847;29;20044;-67
2022/08/17 11:41:16;;;;;;;40.95;34.28;;;;;;;20.57;100.00;100972.78;4923963;29;20296;-61
2022/08/17 11:43:54;;;;;;;41.10;36.03;;;;;;;20.67;100.00;100987.66;4921897;29;20068;-63
2022/08/17 11:52:40;;;;;;;38.63;33.53;;;;;;;20.40;100.00;100988.59;4970757;28;20089;-60
2022/08/17 11:55:09;;;;;;;38.05;33.35;;;;;;;20.55;100.00;100985.38;4973544;28;20582;-60
2022/08/17 11:57:40;;;;;;;36.85;32.65;;;;;;;20.62;100.00;100986.03;4976743;28;20035;-61
2022/08/17 12:00:39;;;;;;;37.83;32.90;;;;;;;20.81;100.00;100980.91;4973118;28;20027;-63
2022/08/17 12:03:41;;;;;;;37.05;32.88;;;;;;;20.82;100.00;100998.78;4972272;28;20042;-59